Cliffside Park, New Jersey
Current Conditions -  °F | °C
As of 6:51 AM on Thursday 23 Oct 2014 (Local Time) from KNYC Reporting Station
Overcast Overcast  
Wind Chill: 51°   Ceiling: 1600
Heat Index: 51°   Visibility: 10mi
Dew Point: 47°   Wind: 9mph
Humidity: 86%   Direction: 10°N
Pressure: 29.73"   Gusts: NA
Location:  40.82°N, 73.99°W
Report Text: KNYC 231051Z AUTO 01008KT 330V030 10SM OVC016 11/08 A2973 RMK AO2 RAB0956E50 SLP059 P0003 T01060083 $
Loading
Personal Weather Stations






























Interactive Weather Map
Tropical Storm Tracking
New forecast layout! Learn more

10-Day Weather Forecast

Advertisements
Track Severe Weather on mobile